sensor_id;sensor_type;location;lat;lon;timestamp;pressure;altitude;pressure_sealevel;temperature
19568;BMP280;9930;49.240;8.548;2023-06-01T00:02:10;100653.16;;;22.24
19568;BMP280;9930;49.240;8.548;2023-06-01T00:04:39;100647.13;;;22.19
19568;BMP280;9930;49.240;8.548;2023-06-01T00:07:09;100657.50;;;22.20
19568;BMP280;9930;49.240;8.548;2023-06-01T00:09:37;100659.28;;;22.17
19568;BMP280;9930;49.240;8.548;2023-06-01T00:12:04;100658.44;;;22.12
19568;BMP280;9930;49.240;8.548;2023-06-01T00:14:31;100665.38;;;22.08
19568;BMP280;9930;49.240;8.548;2023-06-01T00:16:56;100653.28;;;22.03
19568;BMP280;9930;49.240;8.548;2023-06-01T00:19:24;100655.03;;;21.93
19568;BMP280;9930;49.240;8.548;2023-06-01T00:21:53;100648.97;;;21.92
19568;BMP280;9930;49.240;8.548;2023-06-01T00:24:20;100642.97;;;21.84
19568;BMP280;9930;49.240;8.548;2023-06-01T00:26:50;100636.06;;;21.80
19568;BMP280;9930;49.240;8.548;2023-06-01T00:29:17;100655.97;;;21.81
19568;BMP280;9930;49.240;8.548;2023-06-01T00:31:43;100655.97;;;21.77
19568;BMP280;9930;49.240;8.548;2023-06-01T00:34:12;100651.66;;;21.73
19568;BMP280;9930;49.240;8.548;2023-06-01T00:36:38;100649.97;;;21.69
19568;BMP280;9930;49.240;8.548;2023-06-01T00:39:04;100645.66;;;21.64
19568;BMP280;9930;49.240;8.548;2023-06-01T00:41:31;100643.94;;;21.56
19568;BMP280;9930;49.240;8.548;2023-06-01T00:44:00;100636.19;;;21.51
19568;BMP280;9930;49.240;8.548;2023-06-01T00:46:26;100645.69;;;21.54
19568;BMP280;9930;49.240;8.548;2023-06-01T00:48:56;100645.69;;;21.51
19568;BMP280;9930;49.240;8.548;2023-06-01T00:51:22;100649.16;;;21.47
19568;BMP280;9930;49.240;8.548;2023-06-01T00:53:49;100650.03;;;21.44
19568;BMP280;9930;49.240;8.548;2023-06-01T00:56:16;100639.69;;;21.40
19568;BMP280;9930;49.240;8.548;2023-06-01T00:58:49;100647.47;;;21.35
19568;BMP280;9930;49.240;8.548;2023-06-01T01:01:15;100645.75;;;21.31
19568;BMP280;9930;49.240;8.548;2023-06-01T01:03:52;100630.19;;;21.19
19568;BMP280;9930;49.240;8.548;2023-06-01T01:06:39;100644.91;;;21.26
19568;BMP280;9930;49.240;8.548;2023-06-01T01:09:32;100640.56;;;21.17
19568;BMP280;9930;49.240;8.548;2023-06-01T01:12:16;100629.34;;;21.12
19568;BMP280;9930;49.240;8.548;2023-06-01T01:17:47;100649.22;;;21.09
19568;BMP280;9930;49.240;8.548;2023-06-01T01:20:27;100634.56;;;20.97
19568;BMP280;9930;49.240;8.548;2023-06-01T01:23:20;100642.31;;;21.05
19568;BMP280;9930;49.240;8.548;2023-06-01T01:26:32;100648.38;;;20.99
19568;BMP280;9930;49.240;8.548;2023-06-01T01:29:09;100648.38;;;20.96
19568;BMP280;9930;49.240;8.548;2023-06-01T01:31:37;100645.78;;;20.94
19568;BMP280;9930;49.240;8.548;2023-06-01T01:34:10;100650.97;;;20.91
19568;BMP280;9930;49.240;8.548;2023-06-01T01:36:36;100657.88;;;20.91
19568;BMP280;9930;49.240;8.548;2023-06-01T01:39:03;100653.56;;;20.84
19568;BMP280;9930;49.240;8.548;2023-06-01T01:41:29;100663.06;;;20.86
19568;BMP280;9930;49.240;8.548;2023-06-01T01:44:02;100658.75;;;20.84
19568;BMP280;9930;49.240;8.548;2023-06-01T01:46:56;100657.91;;;20.82
19568;BMP280;9930;49.240;8.548;2023-06-01T01:49:34;100655.34;;;20.77
19568;BMP280;9930;49.240;8.548;2023-06-01T01:52:18;100651.03;;;20.70
19568;BMP280;9930;49.240;8.548;2023-06-01T01:54:50;100656.19;;;20.70
19568;BMP280;9930;49.240;8.548;2023-06-01T01:57:19;100652.75;;;20.68
19568;BMP280;9930;49.240;8.548;2023-06-01T01:59:49;100638.91;;;20.60
19568;BMP280;9930;49.240;8.548;2023-06-01T02:02:18;100639.78;;;20.57
19568;BMP280;9930;49.240;8.548;2023-06-01T02:04:45;100651.03;;;20.59
19568;BMP280;9930;49.240;8.548;2023-06-01T02:07:14;100640.66;;;20.55
19568;BMP280;9930;49.240;8.548;2023-06-01T02:09:42;100641.50;;;20.46
19568;BMP280;9930;49.240;8.548;2023-06-01T02:12:11;100654.47;;;20.46
19568;BMP280;9930;49.240;8.548;2023-06-01T02:14:37;100656.19;;;20.43
19568;BMP280;9930;49.240;8.548;2023-06-01T02:17:02;100640.59;;;20.30
19568;BMP280;9930;49.240;8.548;2023-06-01T02:19:29;100642.31;;;20.25
19568;BMP280;9930;49.240;8.548;2023-06-01T02:21:59;100648.34;;;20.24
19568;BMP280;9930;49.240;8.548;2023-06-01T02:24:27;100637.97;;;20.12
19568;BMP280;9930;49.240;8.548;2023-06-01T02:26:53;100642.28;;;20.10
19568;BMP280;9930;49.240;8.548;2023-06-01T02:29:20;100645.72;;;20.09
19568;BMP280;9930;49.240;8.548;2023-06-01T02:31:51;100645.72;;;20.01
19568;BMP280;9930;49.240;8.548;2023-06-01T02:34:18;100643.97;;;20.00
19568;BMP280;9930;49.240;8.548;2023-06-01T02:36:46;100657.78;;;19.99
19568;BMP280;9930;49.240;8.548;2023-06-01T02:39:18;100643.06;;;19.89
19568;BMP280;9930;49.240;8.548;2023-06-01T02:41:44;100651.72;;;19.90
19568;BMP280;9930;49.240;8.548;2023-06-01T02:44:10;100649.13;;;19.90
19568;BMP280;9930;49.240;8.548;2023-06-01T02:46:40;100644.78;;;19.86
19568;BMP280;9930;49.240;8.548;2023-06-01T02:49:06;100638.72;;;19.76
19568;BMP280;9930;49.240;8.548;2023-06-01T02:51:32;100649.94;;;19.80
19568;BMP280;9930;49.240;8.548;2023-06-01T02:53:59;100652.53;;;19.75
19568;BMP280;9930;49.240;8.548;2023-06-01T02:56:25;100638.69;;;19.65
19568;BMP280;9930;49.240;8.548;2023-06-01T02:58:52;100648.16;;;19.63
19568;BMP280;9930;49.240;8.548;2023-06-01T03:01:22;100647.28;;;19.63
19568;BMP280;9930;49.240;8.548;2023-06-01T03:03:51;100642.94;;;19.54
19568;BMP280;9930;49.240;8.548;2023-06-01T03:06:17;100644.63;;;19.51
19568;BMP280;9930;49.240;8.548;2023-06-01T03:08:51;100654.09;;;19.50
19568;BMP280;9930;49.240;8.548;2023-06-01T03:11:19;100649.75;;;19.41
19568;BMP280;9930;49.240;8.548;2023-06-01T03:13:45;100655.78;;;19.40
19568;BMP280;9930;49.240;8.548;2023-06-01T03:16:13;100645.41;;;19.36
19568;BMP280;9930;49.240;8.548;2023-06-01T03:18:38;100648.81;;;19.30
19568;BMP280;9930;49.240;8.548;2023-06-01T03:21:04;100641.88;;;19.22
19568;BMP280;9930;49.240;8.548;2023-06-01T03:23:30;100634.94;;;19.18
19568;BMP280;9930;49.240;8.548;2023-06-01T03:25:58;100633.19;;;19.14
19568;BMP280;9930;49.240;8.548;2023-06-01T03:28:26;100638.38;;;19.14
19568;BMP280;9930;49.240;8.548;2023-06-01T03:30:52;100643.50;;;19.07
19568;BMP280;9930;49.240;8.548;2023-06-01T03:33:22;100634.84;;;18.99
19568;BMP280;9930;49.240;8.548;2023-06-01T03:35:50;100646.94;;;19.08
19568;BMP280;9930;49.240;8.548;2023-06-01T03:38:17;100638.31;;;19.03
19568;BMP280;9930;49.240;8.548;2023-06-01T03:40:43;100655.56;;;19.08
19568;BMP280;9930;49.240;8.548;2023-06-01T03:43:08;100653.81;;;19.04
19568;BMP280;9930;49.240;8.548;2023-06-01T03:45:37;100656.44;;;19.07
19568;BMP280;9930;49.240;8.548;2023-06-01T03:48:03;100649.53;;;19.05
19568;BMP280;9930;49.240;8.548;2023-06-01T03:50:29;100656.41;;;19.06
19568;BMP280;9930;49.240;8.548;2023-06-01T03:52:55;100645.16;;;18.99
19568;BMP280;9930;49.240;8.548;2023-06-01T03:55:21;100660.72;;;19.05
19568;BMP280;9930;49.240;8.548;2023-06-01T03:57:54;100656.41;;;19.06
19568;BMP280;9930;49.240;8.548;2023-06-01T04:00:21;100655.56;;;19.07
19568;BMP280;9930;49.240;8.548;2023-06-01T04:02:54;100665.97;;;19.15
19568;BMP280;9930;49.240;8.548;2023-06-01T04:05:22;100674.59;;;19.17
19568;BMP280;9930;49.240;8.548;2023-06-01T04:07:52;100672.03;;;19.20
19568;BMP280;9930;49.240;8.548;2023-06-01T04:10:22;100660.78;;;19.16
19568;BMP280;9930;49.240;8.548;2023-06-01T04:12:50;100663.41;;;19.21
19568;BMP280;9930;49.240;8.548;2023-06-01T04:15:22;100659.97;;;19.20
19568;BMP280;9930;49.240;8.548;2023-06-01T04:17:53;100660.88;;;19.27
19568;BMP280;9930;49.240;8.548;2023-06-01T04:20:22;100665.22;;;19.32
19568;BMP280;9930;49.240;8.548;2023-06-01T04:22:48;100662.59;;;19.29
19568;BMP280;9930;49.240;8.548;2023-06-01T04:25:17;100673.88;;;19.37
19568;BMP280;9930;49.240;8.548;2023-06-01T04:27:49;100674.75;;;19.41
19568;BMP280;9930;49.240;8.548;2023-06-01T04:30:22;100672.19;;;19.44
19568;BMP280;9930;49.240;8.548;2023-06-01T04:32:48;100679.94;;;19.47
19568;BMP280;9930;49.240;8.548;2023-06-01T04:35:14;100679.97;;;19.50
19568;BMP280;9930;49.240;8.548;2023-06-01T04:37:42;100684.31;;;19.53
19568;BMP280;9930;49.240;8.548;2023-06-01T04:40:10;100680.03;;;19.58
19568;BMP280;9930;49.240;8.548;2023-06-01T04:42:39;100686.97;;;19.62
19568;BMP280;9930;49.240;8.548;2023-06-01T04:45:08;100680.09;;;19.67
19568;BMP280;9930;49.240;8.548;2023-06-01T04:47:34;100682.69;;;19.71
19568;BMP280;9930;49.240;8.548;2023-06-01T04:50:09;100680.13;;;19.78
19568;BMP280;9930;49.240;8.548;2023-06-01T04:52:40;100682.75;;;19.84
19568;BMP280;9930;49.240;8.548;2023-06-01T04:55:08;100675.84;;;19.83
19568;BMP280;9930;49.240;8.548;2023-06-01T04:57:35;100691.44;;;19.95
19568;BMP280;9930;49.240;8.548;2023-06-01T05:00:03;100688.84;;;19.98
19568;BMP280;9930;49.240;8.548;2023-06-01T05:02:40;100688.88;;;20.05
19568;BMP280;9930;49.240;8.548;2023-06-01T05:05:09;100694.13;;;20.25
19568;BMP280;9930;49.240;8.548;2023-06-01T05:07:36;100686.44;;;20.62
19568;BMP280;9930;49.240;8.548;2023-06-01T05:10:07;100683.81;;;21.23
19568;BMP280;9930;49.240;8.548;2023-06-01T05:12:36;100680.19;;;21.85
19568;BMP280;9930;49.240;8.548;2023-06-01T05:15:06;100686.72;;;22.57
19568;BMP280;9930;49.240;8.548;2023-06-01T05:17:32;100694.00;;;23.24
19568;BMP280;9930;49.240;8.548;2023-06-01T05:19:58;100697.69;;;23.85
19568;BMP280;9930;49.240;8.548;2023-06-01T05:22:26;100690.84;;;24.44
19568;BMP280;9930;49.240;8.548;2023-06-01T05:24:54;100685.59;;;25.01
19568;BMP280;9930;49.240;8.548;2023-06-01T05:27:20;100690.75;;;25.52
19568;BMP280;9930;49.240;8.548;2023-06-01T05:29:47;100695.66;;;26.10
19568;BMP280;9930;49.240;8.548;2023-06-01T05:32:13;100689.28;;;26.60
19568;BMP280;9930;49.240;8.548;2023-06-01T05:34:39;100690.78;;;27.06
19568;BMP280;9930;49.240;8.548;2023-06-01T05:37:04;100689.69;;;27.47
19568;BMP280;9930;49.240;8.548;2023-06-01T05:39:32;100691.44;;;27.79
19568;BMP280;9930;49.240;8.548;2023-06-01T05:41:58;100696.03;;;28.00
19568;BMP280;9930;49.240;8.548;2023-06-01T05:44:25;100699.03;;;28.18
19568;BMP280;9930;49.240;8.548;2023-06-01T05:46:52;100691.41;;;28.38
19568;BMP280;9930;49.240;8.548;2023-06-01T05:49:20;100694.28;;;28.58
19568;BMP280;9930;49.240;8.548;2023-06-01T05:51:48;100694.31;;;28.85
19568;BMP280;9930;49.240;8.548;2023-06-01T05:54:20;100692.81;;;29.02
19568;BMP280;9930;49.240;8.548;2023-06-01T05:56:49;100678.63;;;29.08
19568;BMP280;9930;49.240;8.548;2023-06-01T05:59:20;100682.00;;;29.12
19568;BMP280;9930;49.240;8.548;2023-06-01T06:01:47;100686.44;;;29.10
19568;BMP280;9930;49.240;8.548;2023-06-01T06:04:19;100688.53;;;29.00
19568;BMP280;9930;49.240;8.548;2023-06-01T06:06:51;100675.13;;;28.83
19568;BMP280;9930;49.240;8.548;2023-06-01T06:09:18;100686.91;;;28.69
19568;BMP280;9930;49.240;8.548;2023-06-01T06:11:48;100687.50;;;28.51
19568;BMP280;9930;49.240;8.548;2023-06-01T06:14:19;100684.50;;;28.35
19568;BMP280;9930;49.240;8.548;2023-06-01T06:16:44;100688.38;;;28.24
19568;BMP280;9930;49.240;8.548;2023-06-01T06:19:12;100666.91;;;28.10
19568;BMP280;9930;49.240;8.548;2023-06-01T06:21:42;100684.50;;;28.06
19568;BMP280;9930;49.240;8.548;2023-06-01T06:24:10;100682.13;;;27.98
19568;BMP280;9930;49.240;8.548;2023-06-01T06:26:36;100679.88;;;27.86
19568;BMP280;9930;49.240;8.548;2023-06-01T06:29:01;100673.22;;;27.74
19568;BMP280;9930;49.240;8.548;2023-06-01T06:31:27;100680.41;;;27.68
19568;BMP280;9930;49.240;8.548;2023-06-01T06:33:53;100681.63;;;27.55
19568;BMP280;9930;49.240;8.548;2023-06-01T06:36:19;100680.16;;;27.45
19568;BMP280;9930;49.240;8.548;2023-06-01T06:38:45;100674.44;;;27.30
19568;BMP280;9930;49.240;8.548;2023-06-01T06:41:13;100684.13;;;27.27
19568;BMP280;9930;49.240;8.548;2023-06-01T06:43:39;100683.56;;;27.16
19568;BMP280;9930;49.240;8.548;2023-06-01T06:46:07;100690.31;;;27.24
19568;BMP280;9930;49.240;8.548;2023-06-01T06:48:33;100684.75;;;27.36
19568;BMP280;9930;49.240;8.548;2023-06-01T06:50:58;100691.06;;;27.62
19568;BMP280;9930;49.240;8.548;2023-06-01T06:53:27;100685.16;;;27.85
19568;BMP280;9930;49.240;8.548;2023-06-01T06:55:53;100690.28;;;28.17
19568;BMP280;9930;49.240;8.548;2023-06-01T06:58:19;100680.88;;;28.40
19568;BMP280;9930;49.240;8.548;2023-06-01T07:00:44;100682.66;;;28.65
19568;BMP280;9930;49.240;8.548;2023-06-01T07:03:10;100672.50;;;28.83
19568;BMP280;9930;49.240;8.548;2023-06-01T07:05:36;100683.13;;;29.05
19568;BMP280;9930;49.240;8.548;2023-06-01T07:08:02;100681.84;;;29.16
19568;BMP280;9930;49.240;8.548;2023-06-01T07:10:27;100680.25;;;29.12
19568;BMP280;9930;49.240;8.548;2023-06-01T07:12:55;100688.22;;;29.09
19568;BMP280;9930;49.240;8.548;2023-06-01T07:15:24;100683.22;;;29.01
19568;BMP280;9930;49.240;8.548;2023-06-01T07:17:50;100676.63;;;28.90
19568;BMP280;9930;49.240;8.548;2023-06-01T07:20:18;100673.47;;;28.79
19568;BMP280;9930;49.240;8.548;2023-06-01T07:22:44;100680.75;;;28.70
19568;BMP280;9930;49.240;8.548;2023-06-01T07:25:10;100685.19;;;28.68
19568;BMP280;9930;49.240;8.548;2023-06-01T07:27:41;100683.16;;;28.77
19568;BMP280;9930;49.240;8.548;2023-06-01T07:30:12;100667.41;;;28.77
19568;BMP280;9930;49.240;8.548;2023-06-01T07:32:38;100672.28;;;28.89
19568;BMP280;9930;49.240;8.548;2023-06-01T07:35:07;100669.66;;;28.89
19568;BMP280;9930;49.240;8.548;2023-06-01T07:37:33;100675.50;;;28.97
19568;BMP280;9930;49.240;8.548;2023-06-01T07:40:02;100661.25;;;29.04
19568;BMP280;9930;49.240;8.548;2023-06-01T07:42:30;100668.81;;;29.13
19568;BMP280;9930;49.240;8.548;2023-06-01T07:44:58;100664.47;;;29.12
19568;BMP280;9930;49.240;8.548;2023-06-01T07:47:24;100669.41;;;29.21
19568;BMP280;9930;49.240;8.548;2023-06-01T07:49:51;100665.91;;;29.21
19568;BMP280;9930;49.240;8.548;2023-06-01T07:52:19;100673.53;;;29.28
19568;BMP280;9930;49.240;8.548;2023-06-01T07:54:52;100669.72;;;29.37
19568;BMP280;9930;49.240;8.548;2023-06-01T07:57:19;100667.66;;;29.47
19568;BMP280;9930;49.240;8.548;2023-06-01T07:59:46;100658.50;;;29.57
19568;BMP280;9930;49.240;8.548;2023-06-01T08:02:13;100657.41;;;29.62
19568;BMP280;9930;49.240;8.548;2023-06-01T08:04:41;100666.56;;;29.76
19568;BMP280;9930;49.240;8.548;2023-06-01T08:07:09;100655.94;;;29.79
19568;BMP280;9930;49.240;8.548;2023-06-01T08:09:37;100655.53;;;29.89
19568;BMP280;9930;49.240;8.548;2023-06-01T08:12:04;100653.38;;;29.99
19568;BMP280;9930;49.240;8.548;2023-06-01T08:14:33;100652.09;;;30.11
19568;BMP280;9930;49.240;8.548;2023-06-01T08:17:01;100644.94;;;30.14
19568;BMP280;9930;49.240;8.548;2023-06-01T08:19:28;100652.59;;;30.20
19568;BMP280;9930;49.240;8.548;2023-06-01T08:21:53;100637.22;;;30.10
19568;BMP280;9930;49.240;8.548;2023-06-01T08:24:24;100637.66;;;29.97
19568;BMP280;9930;49.240;8.548;2023-06-01T08:26:54;100625.84;;;29.86
19568;BMP280;9930;49.240;8.548;2023-06-01T08:29:20;100636.44;;;29.84
19568;BMP280;9930;49.240;8.548;2023-06-01T08:31:47;100635.63;;;29.82
19568;BMP280;9930;49.240;8.548;2023-06-01T08:34:15;100635.88;;;29.76
19568;BMP280;9930;49.240;8.548;2023-06-01T08:36:43;100636.38;;;29.62
19568;BMP280;9930;49.240;8.548;2023-06-01T08:39:24;100635.72;;;29.57
19568;BMP280;9930;49.240;8.548;2023-06-01T08:42:19;100640.16;;;29.55
19568;BMP280;9930;49.240;8.548;2023-06-01T08:44:57;100636.06;;;29.48
19568;BMP280;9930;49.240;8.548;2023-06-01T08:47:27;100637.06;;;29.44
19568;BMP280;9930;49.240;8.548;2023-06-01T08:49:58;100626.66;;;29.41
19568;BMP280;9930;49.240;8.548;2023-06-01T08:52:28;100626.75;;;29.38
19568;BMP280;9930;49.240;8.548;2023-06-01T08:54:54;100620.88;;;29.31
19568;BMP280;9930;49.240;8.548;2023-06-01T08:57:21;100626.00;;;29.34
19568;BMP280;9930;49.240;8.548;2023-06-01T08:59:47;100627.72;;;29.36
19568;BMP280;9930;49.240;8.548;2023-06-01T09:02:14;100630.34;;;29.36
19568;BMP280;9930;49.240;8.548;2023-06-01T09:04:41;100613.16;;;29.27
19568;BMP280;9930;49.240;8.548;2023-06-01T09:07:08;100621.91;;;29.27
19568;BMP280;9930;49.240;8.548;2023-06-01T09:09:36;100611.78;;;29.17
19568;BMP280;9930;49.240;8.548;2023-06-01T09:12:26;100617.78;;;29.20
19568;BMP280;9930;49.240;8.548;2023-06-01T09:15:13;100608.19;;;29.19
19568;BMP280;9930;49.240;8.548;2023-06-01T09:17:43;100615.03;;;29.23
19568;BMP280;9930;49.240;8.548;2023-06-01T09:20:28;100615.66;;;29.30
19568;BMP280;9930;49.240;8.548;2023-06-01T09:22:55;100599.06;;;29.29
19568;BMP280;9930;49.240;8.548;2023-06-01T09:25:29;100612.88;;;29.34
19568;BMP280;9930;49.240;8.548;2023-06-01T09:27:58;100615.25;;;29.42
19568;BMP280;9930;49.240;8.548;2023-06-01T09:30:44;100603.75;;;29.45
19568;BMP280;9930;49.240;8.548;2023-06-01T09:33:17;100610.41;;;29.55
19568;BMP280;9930;49.240;8.548;2023-06-01T09:35:52;100610.22;;;29.59
19568;BMP280;9930;49.240;8.548;2023-06-01T09:38:25;100606.50;;;29.65
19568;BMP280;9930;49.240;8.548;2023-06-01T09:41:02;100603.75;;;29.68
19568;BMP280;9930;49.240;8.548;2023-06-01T09:43:29;100595.50;;;29.77
19568;BMP280;9930;49.240;8.548;2023-06-01T09:46:07;100602.94;;;29.89
19568;BMP280;9930;49.240;8.548;2023-06-01T09:48:35;100597.34;;;29.97
19568;BMP280;9930;49.240;8.548;2023-06-01T09:51:02;100584.06;;;30.02
19568;BMP280;9930;49.240;8.548;2023-06-01T09:53:28;100589.69;;;30.14
19568;BMP280;9930;49.240;8.548;2023-06-01T09:56:00;100585.94;;;30.20
19568;BMP280;9930;49.240;8.548;2023-06-01T09:58:27;100572.59;;;30.24
19568;BMP280;9930;49.240;8.548;2023-06-01T10:01:00;100579.38;;;30.30
19568;BMP280;9930;49.240;8.548;2023-06-01T10:03:27;100584.25;;;30.39
19568;BMP280;9930;49.240;8.548;2023-06-01T10:05:56;100578.94;;;30.41
19568;BMP280;9930;49.240;8.548;2023-06-01T10:08:23;100582.97;;;30.49
19568;BMP280;9930;49.240;8.548;2023-06-01T10:10:51;100589.75;;;30.55
19568;BMP280;9930;49.240;8.548;2023-06-01T10:13:21;100580.06;;;30.55
19568;BMP280;9930;49.240;8.548;2023-06-01T10:15:54;100581.00;;;30.54
19568;BMP280;9930;49.240;8.548;2023-06-01T10:18:25;100566.19;;;30.52
19568;BMP280;9930;49.240;8.548;2023-06-01T10:20:51;100566.91;;;30.55
19568;BMP280;9930;49.240;8.548;2023-06-01T10:23:22;100569.19;;;30.65
19568;BMP280;9930;49.240;8.548;2023-06-01T10:25:51;100554.16;;;30.67
19568;BMP280;9930;49.240;8.548;2023-06-01T10:28:20;100563.19;;;30.81
19568;BMP280;9930;49.240;8.548;2023-06-01T10:34:08;100557.44;;;30.92
19568;BMP280;9930;49.240;8.548;2023-06-01T10:39:27;100554.91;;;31.09
19568;BMP280;9930;49.240;8.548;2023-06-01T10:41:58;100552.94;;;31.14
19568;BMP280;9930;49.240;8.548;2023-06-01T10:57:43;100527.94;;;31.23
19568;BMP280;9930;49.240;8.548;2023-06-01T11:00:22;100525.66;;;31.34
19568;BMP280;9930;49.240;8.548;2023-06-01T11:03:04;100539.31;;;31.42
19568;BMP280;9930;49.240;8.548;2023-06-01T11:05:45;100520.94;;;31.41
19568;BMP280;9930;49.240;8.548;2023-06-01T11:19:07;100525.06;;;31.65
19568;BMP280;9930;49.240;8.548;2023-06-01T11:21:40;100526.56;;;31.71
19568;BMP280;9930;49.240;8.548;2023-06-01T11:24:14;100518.78;;;31.68
19568;BMP280;9930;49.240;8.548;2023-06-01T11:26:53;100520.53;;;31.69
19568;BMP280;9930;49.240;8.548;2023-06-01T11:29:23;100522.22;;;31.70
19568;BMP280;9930;49.240;8.548;2023-06-01T11:31:56;100508.22;;;31.68
19568;BMP280;9930;49.240;8.548;2023-06-01T11:34:35;100519.28;;;31.76
19568;BMP280;9930;49.240;8.548;2023-06-01T11:37:05;100523.72;;;31.75
19568;BMP280;9930;49.240;8.548;2023-06-01T11:39:31;100506.19;;;31.74
19568;BMP280;9930;49.240;8.548;2023-06-01T11:44:59;100514.16;;;31.73
19568;BMP280;9930;49.240;8.548;2023-06-01T11:47:29;100501.16;;;31.68
19568;BMP280;9930;49.240;8.548;2023-06-01T11:49:55;100504.63;;;31.70
19568;BMP280;9930;49.240;8.548;2023-06-01T11:52:21;100495.84;;;31.70
19568;BMP280;9930;49.240;8.548;2023-06-01T11:54:48;100488.78;;;31.70
19568;BMP280;9930;49.240;8.548;2023-06-01T11:57:15;100473.75;;;31.72
19568;BMP280;9930;49.240;8.548;2023-06-01T11:59:46;100489.19;;;31.80
19568;BMP280;9930;49.240;8.548;2023-06-01T12:05:03;100482.28;;;31.77
19568;BMP280;9930;49.240;8.548;2023-06-01T12:07:50;100476.16;;;31.77
19568;BMP280;9930;49.240;8.548;2023-06-01T12:10:23;100489.91;;;31.83
19568;BMP280;9930;49.240;8.548;2023-06-01T12:12:50;100485.34;;;31.87
19568;BMP280;9930;49.240;8.548;2023-06-01T12:15:18;100469.44;;;31.88
19568;BMP280;9930;49.240;8.548;2023-06-01T12:17:52;100462.06;;;31.95
19568;BMP280;9930;49.240;8.548;2023-06-01T12:23:11;100461.28;;;32.10
19568;BMP280;9930;49.240;8.548;2023-06-01T12:25:55;100463.47;;;32.19
19568;BMP280;9930;49.240;8.548;2023-06-01T12:28:24;100469.47;;;32.23
19568;BMP280;9930;49.240;8.548;2023-06-01T12:31:15;100453.47;;;32.26
19568;BMP280;9930;49.240;8.548;2023-06-01T12:33:42;100444.69;;;32.26
19568;BMP280;9930;49.240;8.548;2023-06-01T12:36:36;100459.28;;;32.33
19568;BMP280;9930;49.240;8.548;2023-06-01T12:39:04;100454.84;;;32.33
19568;BMP280;9930;49.240;8.548;2023-06-01T12:41:32;100461.84;;;32.34
19568;BMP280;9930;49.240;8.548;2023-06-01T12:43:58;100449.75;;;32.30
19568;BMP280;9930;49.240;8.548;2023-06-01T12:46:27;100439.50;;;32.24
19568;BMP280;9930;49.240;8.548;2023-06-01T12:49:11;100442.91;;;32.26
19568;BMP280;9930;49.240;8.548;2023-06-01T12:51:37;100444.38;;;32.32
19568;BMP280;9930;49.240;8.548;2023-06-01T12:54:03;100436.53;;;32.30
19568;BMP280;9930;49.240;8.548;2023-06-01T12:56:32;100444.13;;;32.36
19568;BMP280;9930;49.240;8.548;2023-06-01T12:58:57;100426.50;;;32.37
19568;BMP280;9930;49.240;8.548;2023-06-01T13:01:23;100434.28;;;32.40
19568;BMP280;9930;49.240;8.548;2023-06-01T13:03:51;100434.88;;;32.45
19568;BMP280;9930;49.240;8.548;2023-06-01T13:06:19;100428.75;;;32.44
19568;BMP280;9930;49.240;8.548;2023-06-01T13:08:47;100425.00;;;32.48
19568;BMP280;9930;49.240;8.548;2023-06-01T13:11:14;100419.72;;;32.48
19568;BMP280;9930;49.240;8.548;2023-06-01T13:13:43;100427.16;;;32.58
19568;BMP280;9930;49.240;8.548;2023-06-01T13:16:13;100421.63;;;32.62
19568;BMP280;9930;49.240;8.548;2023-06-01T13:18:42;100414.81;;;32.58
19568;BMP280;9930;49.240;8.548;2023-06-01T13:21:09;100423.41;;;32.62
19568;BMP280;9930;49.240;8.548;2023-06-01T13:23:38;100421.47;;;32.65
19568;BMP280;9930;49.240;8.548;2023-06-01T13:26:03;100404.06;;;32.61
19568;BMP280;9930;49.240;8.548;2023-06-01T13:28:33;100417.81;;;32.68
19568;BMP280;9930;49.240;8.548;2023-06-01T13:31:02;100411.59;;;32.69
19568;BMP280;9930;49.240;8.548;2023-06-01T13:33:30;100416.09;;;32.67
19568;BMP280;9930;49.240;8.548;2023-06-01T13:35:57;100391.03;;;32.58
19568;BMP280;9930;49.240;8.548;2023-06-01T13:38:27;100410.22;;;32.62
19568;BMP280;9930;49.240;8.548;2023-06-01T13:40:53;100394.78;;;32.54
19568;BMP280;9930;49.240;8.548;2023-06-01T13:43:24;100394.69;;;32.56
19568;BMP280;9930;49.240;8.548;2023-06-01T13:45:50;100393.94;;;32.53
19568;BMP280;9930;49.240;8.548;2023-06-01T13:48:20;100381.06;;;32.47
19568;BMP280;9930;49.240;8.548;2023-06-01T13:50:52;100380.88;;;32.50
19568;BMP280;9930;49.240;8.548;2023-06-01T13:53:18;100386.16;;;32.50
19568;BMP280;9930;49.240;8.548;2023-06-01T13:55:46;100374.16;;;32.45
19568;BMP280;9930;49.240;8.548;2023-06-01T13:58:12;100376.72;;;32.46
19568;BMP280;9930;49.240;8.548;2023-06-01T14:00:38;100378.34;;;32.49
19568;BMP280;9930;49.240;8.548;2023-06-01T14:03:04;100373.91;;;32.49
19568;BMP280;9930;49.240;8.548;2023-06-01T14:05:29;100359.00;;;32.48
19568;BMP280;9930;49.240;8.548;2023-06-01T14:07:57;100369.16;;;32.56
19568;BMP280;9930;49.240;8.548;2023-06-01T14:10:25;100361.22;;;32.56
19568;BMP280;9930;49.240;8.548;2023-06-01T14:12:53;100360.28;;;32.57
19568;BMP280;9930;49.240;8.548;2023-06-01T14:15:21;100367.97;;;32.62
19568;BMP280;9930;49.240;8.548;2023-06-01T14:17:48;100355.78;;;32.59
19568;BMP280;9930;49.240;8.548;2023-06-01T14:20:16;100348.09;;;32.55
19568;BMP280;9930;49.240;8.548;2023-06-01T14:22:44;100359.94;;;32.63
19568;BMP280;9930;49.240;8.548;2023-06-01T14:25:12;100357.31;;;32.63
19568;BMP280;9930;49.240;8.548;2023-06-01T14:27:39;100356.38;;;32.64
19568;BMP280;9930;49.240;8.548;2023-06-01T14:30:08;100336.44;;;32.59
19568;BMP280;9930;49.240;8.548;2023-06-01T14:32:36;100345.72;;;32.66
19568;BMP280;9930;49.240;8.548;2023-06-01T14:35:10;100350.94;;;32.67
19568;BMP280;9930;49.240;8.548;2023-06-01T14:37:42;100343.84;;;32.68
19568;BMP280;9930;49.240;8.548;2023-06-01T14:40:11;100331.00;;;32.62
19568;BMP280;9930;49.240;8.548;2023-06-01T14:42:39;100333.53;;;32.63
19568;BMP280;9930;49.240;8.548;2023-06-01T14:45:06;100324.94;;;32.60
19568;BMP280;9930;49.240;8.548;2023-06-01T14:47:33;100325.03;;;32.58
19568;BMP280;9930;49.240;8.548;2023-06-01T14:49:58;100325.72;;;32.62
19568;BMP280;9930;49.240;8.548;2023-06-01T14:52:31;100319.06;;;32.55
19568;BMP280;9930;49.240;8.548;2023-06-01T14:54:56;100317.34;;;32.53
19568;BMP280;9930;49.240;8.548;2023-06-01T14:57:22;100319.13;;;32.53
19568;BMP280;9930;49.240;8.548;2023-06-01T14:59:52;100327.75;;;32.57
19568;BMP280;9930;49.240;8.548;2023-06-01T15:02:19;100312.25;;;32.50
19568;BMP280;9930;49.240;8.548;2023-06-01T15:04:51;100316.59;;;32.51